AZU1383 SBSV-SBGR
Flight info
| Callsign | AZU1383 |
|---|---|
| Flight time | 1h 56m |
| Altitude | 38000 |
| Route | GILDO UZ21 VUNOX |
| Aircraft | A20N/M-SDE2E3FGHIRWXY/LB1 |
Departure
| Time | 2026-05-05 20:24 |
|---|---|
| Airport | Deputado Luiz Eduardo Magalhães International Airport (SBSV) |
Arrival
| Time | 2026-05-05 22:21 |
|---|---|
| Airport | São Paulo/Guarulhos–Governor André Franco Montoro International Airport (SBGR) |
| Time | Latitude | Longitude | Altitude | Speed | Heading |
|---|---|---|---|---|---|
| 2026-05-05 19:59 | -12.91351 | -38.33225 | 43 ft | 0 kts | 225° |
| 2026-05-05 20:05 | -12.91347 | -38.33221 | 43 ft | 1 kts | 230° |
| 2026-05-05 20:06 | -12.91342 | -38.33215 | 41 ft | 1 kts | 239° |
| 2026-05-05 20:06 | -12.91338 | -38.33208 | 42 ft | 1 kts | 247° |
| 2026-05-05 20:06 | -12.91335 | -38.33200 | 40 ft | 1 kts | 256° |
| 2026-05-05 20:06 | -12.91333 | -38.33192 | 41 ft | 1 kts | 268° |
| 2026-05-05 20:07 | -12.91333 | -38.33184 | 42 ft | 1 kts | 284° |
| 2026-05-05 20:07 | -12.91335 | -38.33176 | 39 ft | 1 kts | 300° |
| 2026-05-05 20:07 | -12.91339 | -38.33169 | 40 ft | 1 kts | 316° |
| 2026-05-05 20:07 | -12.91345 | -38.33164 | 44 ft | 1 kts | 332° |
| 2026-05-05 20:08 | -12.91346 | -38.33163 | 40 ft | 0 kts | 334° |
| 2026-05-05 20:17 | -12.91337 | -38.33168 | 43 ft | 4 kts | 334° |
| 2026-05-05 20:17 | -12.91299 | -38.33190 | 42 ft | 8 kts | 321° |
| 2026-05-05 20:17 | -12.91277 | -38.33245 | 43 ft | 10 kts | 279° |
| 2026-05-05 20:18 | -12.91248 | -38.33318 | 40 ft | 12 kts | 315° |
| 2026-05-05 20:18 | -12.91194 | -38.33396 | 40 ft | 15 kts | 287° |
| 2026-05-05 20:18 | -12.91194 | -38.33511 | 38 ft | 18 kts | 258° |
| 2026-05-05 20:18 | -12.91176 | -38.33566 | 36 ft | 0 kts | 314° |
| 2026-05-05 20:22 | -12.91172 | -38.33571 | 37 ft | 4 kts | 314° |
| 2026-05-05 20:22 | -12.91135 | -38.33581 | 37 ft | 9 kts | 19° |
| 2026-05-05 20:22 | -12.91114 | -38.33526 | 38 ft | 11 kts | 72° |
| 2026-05-05 20:23 | -12.91112 | -38.33515 | 38 ft | 0 kts | 79° |
| 2026-05-05 20:24 | -12.91108 | -38.33491 | 38 ft | 23 kts | 79° |
| 2026-05-05 20:24 | -12.91022 | -38.33085 | 45 ft | 92 kts | 78° |
| 2026-05-05 20:24 | -12.90847 | -38.32250 | 101 ft | 138 kts | 77° |
| 2026-05-05 20:24 | -12.90642 | -38.31302 | 747 ft | 129 kts | 77° |
| 2026-05-05 20:25 | -12.90438 | -38.30377 | 1254 ft | 152 kts | 77° |
| 2026-05-05 20:25 | -12.90152 | -38.29100 | 1273 ft | 205 kts | 77° |
| 2026-05-05 20:25 | -12.89840 | -38.27729 | 2454 ft | 197 kts | 76° |
| 2026-05-05 20:25 | -12.89526 | -38.26380 | 3513 ft | 194 kts | 76° |
| 2026-05-05 20:26 | -12.89200 | -38.25004 | 4492 ft | 198 kts | 77° |
| 2026-05-05 20:26 | -12.88980 | -38.23587 | 5399 ft | 204 kts | 86° |
| 2026-05-05 20:26 | -12.89210 | -38.22126 | 6201 ft | 214 kts | 116° |
| 2026-05-05 20:26 | -12.90149 | -38.20952 | 7102 ft | 217 kts | 146° |
| 2026-05-05 20:27 | -12.91547 | -38.20384 | 8014 ft | 220 kts | 175° |
| 2026-05-05 20:27 | -12.93063 | -38.20566 | 8908 ft | 221 kts | 203° |
| 2026-05-05 20:27 | -12.94278 | -38.21408 | 9729 ft | 224 kts | 230° |
| 2026-05-05 20:27 | -12.95029 | -38.22803 | 10545 ft | 228 kts | 256° |
| 2026-05-05 20:28 | -12.95575 | -38.24349 | 11122 ft | 246 kts | 239° |
| 2026-05-05 20:28 | -12.96684 | -38.25866 | 11297 ft | 277 kts | 238° |
| 2026-05-05 20:28 | -12.97509 | -38.27732 | 11686 ft | 300 kts | 251° |
| 2026-05-05 20:28 | -12.98217 | -38.29837 | 12052 ft | 324 kts | 250° |
| 2026-05-05 20:29 | -12.99054 | -38.32070 | 12490 ft | 343 kts | 248° |
| 2026-05-05 20:29 | -13.00017 | -38.34318 | 13349 ft | 347 kts | 245° |
| 2026-05-05 20:29 | -13.00846 | -38.36133 | 14062 ft | 351 kts | 245° |
| 2026-05-05 20:29 | -13.01902 | -38.38386 | 14921 ft | 356 kts | 246° |
| 2026-05-05 20:30 | -13.02763 | -38.40766 | 15766 ft | 360 kts | 254° |
| 2026-05-05 20:30 | -13.03295 | -38.43274 | 16580 ft | 365 kts | 260° |
| 2026-05-05 20:30 | -13.03759 | -38.45879 | 17390 ft | 369 kts | 259° |
| 2026-05-05 20:30 | -13.04236 | -38.48483 | 18168 ft | 374 kts | 259° |
| 2026-05-05 20:31 | -13.04725 | -38.51122 | 18927 ft | 378 kts | 259° |
| 2026-05-05 20:31 | -13.05220 | -38.53786 | 19662 ft | 382 kts | 259° |
| 2026-05-05 20:31 | -13.05720 | -38.56482 | 20372 ft | 387 kts | 259° |
| 2026-05-05 20:31 | -13.06209 | -38.59125 | 21043 ft | 391 kts | 259° |
| 2026-05-05 20:32 | -13.06720 | -38.61885 | 21702 ft | 395 kts | 259° |
| 2026-05-05 20:32 | -13.07045 | -38.63643 | 22105 ft | 397 kts | 259° |
| 2026-05-05 20:32 | -13.07738 | -38.67399 | 22925 ft | 402 kts | 259° |
| 2026-05-05 20:32 | -13.08076 | -38.69227 | 23304 ft | 405 kts | 259° |
| 2026-05-05 20:33 | -13.08743 | -38.72053 | 23868 ft | 409 kts | 252° |
| 2026-05-05 20:33 | -13.09819 | -38.74813 | 24419 ft | 412 kts | 244° |
| 2026-05-05 20:33 | -13.11185 | -38.77289 | 24922 ft | 416 kts | 237° |
| 2026-05-05 20:33 | -13.12762 | -38.79796 | 25418 ft | 419 kts | 237° |
| 2026-05-05 20:34 | -13.14352 | -38.82365 | 25859 ft | 422 kts | 238° |
| 2026-05-05 20:34 | -13.15880 | -38.84847 | 26254 ft | 425 kts | 238° |
| 2026-05-05 20:34 | -13.17468 | -38.87432 | 26663 ft | 427 kts | 238° |
| 2026-05-05 20:34 | -13.19059 | -38.90021 | 27058 ft | 430 kts | 238° |
| 2026-05-05 20:35 | -13.20661 | -38.92627 | 27438 ft | 432 kts | 238° |
| 2026-05-05 20:35 | -13.22269 | -38.95242 | 27805 ft | 435 kts | 238° |
| 2026-05-05 20:35 | -13.23885 | -38.97873 | 28144 ft | 437 kts | 238° |
| 2026-05-05 20:35 | -13.25511 | -39.00519 | 28494 ft | 440 kts | 238° |
| 2026-05-05 20:36 | -13.27160 | -39.03202 | 28819 ft | 442 kts | 238° |
| 2026-05-05 20:36 | -13.28796 | -39.05865 | 29134 ft | 444 kts | 238° |
| 2026-05-05 20:36 | -13.30436 | -39.08537 | 29405 ft | 447 kts | 238° |
| 2026-05-05 20:36 | -13.32111 | -39.11264 | 29714 ft | 449 kts | 238° |
| 2026-05-05 20:37 | -13.33712 | -39.13873 | 30015 ft | 451 kts | 238° |
| 2026-05-05 20:37 | -13.35399 | -39.16623 | 30314 ft | 453 kts | 238° |
| 2026-05-05 20:37 | -13.37087 | -39.19377 | 30592 ft | 455 kts | 238° |
| 2026-05-05 20:37 | -13.38774 | -39.22128 | 30883 ft | 458 kts | 238° |
| 2026-05-05 20:38 | -13.40476 | -39.24907 | 31189 ft | 459 kts | 238° |
| 2026-05-05 20:38 | -13.42173 | -39.27677 | 31547 ft | 459 kts | 238° |
| 2026-05-05 20:38 | -13.44008 | -39.30374 | 31925 ft | 458 kts | 231° |
| 2026-05-05 20:38 | -13.46037 | -39.32709 | 32275 ft | 458 kts | 225° |
| 2026-05-05 20:39 | -13.48429 | -39.34891 | 32642 ft | 457 kts | 218° |
| 2026-05-05 20:39 | -13.51002 | -39.36822 | 32964 ft | 456 kts | 216° |
| 2026-05-05 20:39 | -13.53527 | -39.38703 | 33289 ft | 456 kts | 216° |
| 2026-05-05 20:39 | -13.56076 | -39.40617 | 33608 ft | 455 kts | 216° |
| 2026-05-05 20:40 | -13.58640 | -39.42544 | 33923 ft | 454 kts | 216° |
| 2026-05-05 20:40 | -13.61191 | -39.44460 | 34240 ft | 453 kts | 216° |
| 2026-05-05 20:40 | -13.63733 | -39.46368 | 34500 ft | 453 kts | 216° |
| 2026-05-05 20:40 | -13.66276 | -39.48276 | 34778 ft | 453 kts | 216° |
| 2026-05-05 20:41 | -13.68700 | -39.50094 | 35038 ft | 452 kts | 216° |
| 2026-05-05 20:41 | -13.71234 | -39.51995 | 35289 ft | 452 kts | 216° |
| 2026-05-05 20:41 | -13.73769 | -39.53898 | 35533 ft | 451 kts | 216° |
| 2026-05-05 20:41 | -13.76326 | -39.55818 | 35762 ft | 451 kts | 216° |
| 2026-05-05 20:42 | -13.78864 | -39.57724 | 35993 ft | 451 kts | 216° |
| 2026-05-05 20:42 | -13.81352 | -39.59592 | 36191 ft | 451 kts | 216° |
| 2026-05-05 20:42 | -13.83931 | -39.61530 | 36375 ft | 451 kts | 216° |
| 2026-05-05 20:42 | -13.86466 | -39.63435 | 36581 ft | 451 kts | 216° |
| 2026-05-05 20:43 | -13.89003 | -39.65343 | 36747 ft | 451 kts | 216° |
| 2026-05-05 20:43 | -13.91536 | -39.67248 | 36902 ft | 451 kts | 216° |
| 2026-05-05 20:43 | -13.94078 | -39.69160 | 37112 ft | 451 kts | 216° |
| 2026-05-05 20:43 | -13.96618 | -39.71072 | 37245 ft | 452 kts | 216° |
| 2026-05-05 20:44 | -13.99144 | -39.72973 | 37430 ft | 451 kts | 216° |
| 2026-05-05 20:44 | -14.01685 | -39.74886 | 37568 ft | 451 kts | 216° |
| 2026-05-05 20:44 | -14.04217 | -39.76793 | 37742 ft | 451 kts | 216° |
| 2026-05-05 20:44 | -14.06756 | -39.78705 | 37938 ft | 449 kts | 216° |
| 2026-05-05 20:45 | -14.11826 | -39.82526 | 37999 ft | 455 kts | 216° |
| 2026-05-05 20:45 | -14.16968 | -39.86403 | 38001 ft | 462 kts | 216° |
| 2026-05-05 20:46 | -14.22159 | -39.90323 | 38000 ft | 466 kts | 216° |
| 2026-05-05 20:46 | -14.27416 | -39.94294 | 38000 ft | 470 kts | 216° |
| 2026-05-05 20:47 | -14.32718 | -39.98298 | 38000 ft | 473 kts | 216° |
| 2026-05-05 20:47 | -14.37984 | -40.02278 | 38002 ft | 474 kts | 216° |
| 2026-05-05 20:48 | -14.43087 | -40.06135 | 38003 ft | 476 kts | 216° |
| 2026-05-05 20:48 | -14.48452 | -40.10190 | 38004 ft | 477 kts | 216° |
| 2026-05-05 20:49 | -14.53800 | -40.14243 | 37999 ft | 479 kts | 216° |
| 2026-05-05 20:49 | -14.59188 | -40.18324 | 37993 ft | 480 kts | 216° |
| 2026-05-05 20:50 | -14.64581 | -40.22414 | 37997 ft | 481 kts | 216° |
| 2026-05-05 20:50 | -14.69835 | -40.26399 | 38000 ft | 481 kts | 216° |
| 2026-05-05 20:51 | -14.75129 | -40.30418 | 38001 ft | 481 kts | 216° |
| 2026-05-05 20:51 | -14.80511 | -40.34506 | 38003 ft | 481 kts | 216° |
| 2026-05-05 20:52 | -14.85908 | -40.38608 | 37999 ft | 481 kts | 217° |
| 2026-05-05 20:52 | -14.91203 | -40.42636 | 37998 ft | 481 kts | 217° |
| 2026-05-05 20:53 | -14.96661 | -40.46790 | 37999 ft | 481 kts | 217° |
| 2026-05-05 20:53 | -15.02087 | -40.50922 | 38001 ft | 481 kts | 217° |
| 2026-05-05 20:54 | -15.07481 | -40.55032 | 38000 ft | 481 kts | 217° |
| 2026-05-05 20:54 | -15.12835 | -40.59115 | 38000 ft | 481 kts | 217° |
| 2026-05-05 20:55 | -15.18211 | -40.63217 | 38000 ft | 480 kts | 217° |
| 2026-05-05 20:55 | -15.23589 | -40.67322 | 38000 ft | 480 kts | 217° |
| 2026-05-05 20:56 | -15.28728 | -40.71249 | 38001 ft | 480 kts | 217° |
| 2026-05-05 20:56 | -15.34030 | -40.75303 | 38001 ft | 480 kts | 217° |
| 2026-05-05 20:57 | -15.39349 | -40.79370 | 38002 ft | 481 kts | 217° |
| 2026-05-05 20:57 | -15.44752 | -40.83503 | 38001 ft | 481 kts | 217° |
| 2026-05-05 20:58 | -15.50150 | -40.87636 | 37998 ft | 481 kts | 217° |
| 2026-05-05 20:58 | -15.55534 | -40.91764 | 38000 ft | 481 kts | 217° |
| 2026-05-05 20:59 | -15.60917 | -40.95892 | 38001 ft | 481 kts | 217° |
| 2026-05-05 20:59 | -15.66314 | -41.00035 | 38000 ft | 481 kts | 217° |
| 2026-05-05 21:00 | -15.71689 | -41.04163 | 38000 ft | 482 kts | 217° |
| 2026-05-05 21:00 | -15.77090 | -41.08314 | 38001 ft | 482 kts | 217° |
| 2026-05-05 21:01 | -15.81561 | -41.11754 | 38001 ft | 482 kts | 217° |
| 2026-05-05 21:01 | -15.86920 | -41.15882 | 37999 ft | 482 kts | 217° |
| 2026-05-05 21:02 | -15.92163 | -41.19921 | 37999 ft | 481 kts | 217° |
| 2026-05-05 21:02 | -15.97565 | -41.24081 | 38003 ft | 481 kts | 217° |
| 2026-05-05 21:03 | -16.02919 | -41.28207 | 38000 ft | 481 kts | 217° |
| 2026-05-05 21:03 | -16.08325 | -41.32377 | 38000 ft | 481 kts | 217° |
| 2026-05-05 21:04 | -16.13742 | -41.36559 | 38001 ft | 481 kts | 217° |
| 2026-05-05 21:04 | -16.19086 | -41.40687 | 38000 ft | 481 kts | 217° |
| 2026-05-05 21:05 | -16.24451 | -41.44834 | 38000 ft | 481 kts | 217° |
| 2026-05-05 21:05 | -16.29766 | -41.48945 | 37999 ft | 481 kts | 217° |
| 2026-05-05 21:06 | -16.35075 | -41.53054 | 38000 ft | 481 kts | 217° |
| 2026-05-05 21:06 | -16.40473 | -41.57236 | 38001 ft | 481 kts | 217° |
| 2026-05-05 21:07 | -16.45835 | -41.61392 | 38001 ft | 481 kts | 217° |
| 2026-05-05 21:07 | -16.51219 | -41.65568 | 37998 ft | 481 kts | 217° |
| 2026-05-05 21:08 | -16.56508 | -41.69674 | 37999 ft | 480 kts | 217° |
| 2026-05-05 21:08 | -16.61854 | -41.73826 | 38001 ft | 480 kts | 217° |
| 2026-05-05 21:09 | -16.67261 | -41.78029 | 38000 ft | 480 kts | 217° |
| 2026-05-05 21:09 | -16.72531 | -41.82129 | 38002 ft | 479 kts | 217° |
| 2026-05-05 21:10 | -16.77914 | -41.86319 | 38000 ft | 479 kts | 217° |
| 2026-05-05 21:10 | -16.83265 | -41.90488 | 37998 ft | 479 kts | 217° |
| 2026-05-05 21:11 | -16.88603 | -41.94649 | 38000 ft | 480 kts | 217° |
| 2026-05-05 21:11 | -16.93966 | -41.98836 | 38001 ft | 480 kts | 217° |
| 2026-05-05 21:12 | -16.99151 | -42.02886 | 38002 ft | 480 kts | 217° |
| 2026-05-05 21:12 | -17.04428 | -42.07011 | 38000 ft | 480 kts | 217° |
| 2026-05-05 21:13 | -17.09548 | -42.11016 | 37998 ft | 480 kts | 217° |
| 2026-05-05 21:13 | -17.14908 | -42.15212 | 38002 ft | 480 kts | 217° |
| 2026-05-05 21:14 | -17.20257 | -42.19402 | 37999 ft | 480 kts | 217° |
| 2026-05-05 21:14 | -17.25609 | -42.23598 | 38000 ft | 480 kts | 217° |
| 2026-05-05 21:15 | -17.30963 | -42.27798 | 38001 ft | 480 kts | 217° |
| 2026-05-05 21:15 | -17.36239 | -42.31941 | 37999 ft | 480 kts | 217° |
| 2026-05-05 21:16 | -17.41569 | -42.36128 | 38000 ft | 481 kts | 217° |
| 2026-05-05 21:16 | -17.46986 | -42.40388 | 38000 ft | 481 kts | 217° |
| 2026-05-05 21:17 | -17.52301 | -42.44569 | 38000 ft | 482 kts | 217° |
| 2026-05-05 21:17 | -17.57662 | -42.48786 | 38001 ft | 482 kts | 217° |
| 2026-05-05 21:18 | -17.63033 | -42.53016 | 38000 ft | 482 kts | 217° |
| 2026-05-05 21:18 | -17.68375 | -42.57234 | 38000 ft | 482 kts | 217° |
| 2026-05-05 21:19 | -17.73695 | -42.61435 | 38000 ft | 482 kts | 217° |
| 2026-05-05 21:19 | -17.79094 | -42.65699 | 38000 ft | 481 kts | 217° |
| 2026-05-05 21:20 | -17.84349 | -42.69853 | 38000 ft | 482 kts | 217° |
| 2026-05-05 21:20 | -17.89744 | -42.74121 | 38001 ft | 482 kts | 217° |
| 2026-05-05 21:21 | -17.95118 | -42.78375 | 38002 ft | 482 kts | 217° |
| 2026-05-05 21:21 | -18.00372 | -42.82538 | 38000 ft | 482 kts | 217° |
| 2026-05-05 21:22 | -18.05624 | -42.86703 | 37998 ft | 482 kts | 217° |
| 2026-05-05 21:22 | -18.10912 | -42.90899 | 38001 ft | 482 kts | 217° |
| 2026-05-05 21:23 | -18.16293 | -42.95173 | 38001 ft | 482 kts | 217° |
| 2026-05-05 21:23 | -18.21717 | -42.99484 | 37999 ft | 482 kts | 217° |
| 2026-05-05 21:24 | -18.26864 | -43.03578 | 37999 ft | 482 kts | 217° |
| 2026-05-05 21:24 | -18.31288 | -43.07100 | 37999 ft | 482 kts | 217° |
| 2026-05-05 21:25 | -18.36637 | -43.11359 | 37999 ft | 482 kts | 217° |
| 2026-05-05 21:25 | -18.41980 | -43.15636 | 38001 ft | 482 kts | 218° |
| 2026-05-05 21:26 | -18.47258 | -43.19922 | 37999 ft | 482 kts | 218° |
| 2026-05-05 21:26 | -18.52609 | -43.24265 | 38001 ft | 481 kts | 218° |
| 2026-05-05 21:27 | -18.57819 | -43.28493 | 37999 ft | 481 kts | 218° |
| 2026-05-05 21:27 | -18.63141 | -43.32813 | 38000 ft | 481 kts | 218° |
| 2026-05-05 21:28 | -18.68460 | -43.37059 | 38000 ft | 481 kts | 217° |
| 2026-05-05 21:28 | -18.73758 | -43.41251 | 38000 ft | 481 kts | 217° |
| 2026-05-05 21:29 | -18.79149 | -43.45531 | 38001 ft | 481 kts | 217° |
| 2026-05-05 21:29 | -18.84486 | -43.49779 | 38000 ft | 482 kts | 217° |
| 2026-05-05 21:30 | -18.89852 | -43.54042 | 37999 ft | 482 kts | 217° |
| 2026-05-05 21:30 | -18.95300 | -43.58210 | 38000 ft | 482 kts | 216° |
| 2026-05-05 21:31 | -19.00698 | -43.62330 | 38001 ft | 482 kts | 216° |
| 2026-05-05 21:31 | -19.06148 | -43.66513 | 38000 ft | 483 kts | 216° |
| 2026-05-05 21:32 | -19.07274 | -43.67378 | 38000 ft | 483 kts | 216° |
| 2026-05-05 21:32 | -19.09437 | -43.69042 | 38000 ft | 484 kts | 216° |
| 2026-05-05 21:33 | -19.14886 | -43.73235 | 38001 ft | 483 kts | 216° |
| 2026-05-05 21:33 | -19.20293 | -43.77398 | 38000 ft | 483 kts | 216° |
| 2026-05-05 21:34 | -19.25659 | -43.81535 | 38000 ft | 482 kts | 216° |
| 2026-05-05 21:34 | -19.30896 | -43.85574 | 37998 ft | 483 kts | 216° |
| 2026-05-05 21:35 | -19.36326 | -43.89766 | 38000 ft | 482 kts | 216° |
| 2026-05-05 21:35 | -19.41704 | -43.93921 | 38002 ft | 482 kts | 216° |
| 2026-05-05 21:36 | -19.47119 | -43.98109 | 38000 ft | 482 kts | 216° |
| 2026-05-05 21:36 | -19.52500 | -44.02273 | 38000 ft | 481 kts | 216° |
| 2026-05-05 21:37 | -19.57889 | -44.06442 | 38001 ft | 482 kts | 216° |
| 2026-05-05 21:37 | -19.63361 | -44.10637 | 38000 ft | 482 kts | 216° |
| 2026-05-05 21:38 | -19.68779 | -44.14792 | 38000 ft | 482 kts | 216° |
| 2026-05-05 21:38 | -19.74242 | -44.18999 | 37999 ft | 482 kts | 216° |
| 2026-05-05 21:39 | -19.79675 | -44.23200 | 38000 ft | 482 kts | 216° |
| 2026-05-05 21:39 | -19.85097 | -44.27396 | 38000 ft | 482 kts | 216° |
| 2026-05-05 21:40 | -19.90500 | -44.31580 | 37999 ft | 482 kts | 216° |
| 2026-05-05 21:40 | -19.95898 | -44.35766 | 38000 ft | 482 kts | 216° |
| 2026-05-05 21:41 | -20.01309 | -44.39966 | 38001 ft | 482 kts | 216° |
| 2026-05-05 21:41 | -20.06733 | -44.44178 | 37998 ft | 482 kts | 216° |
| 2026-05-05 21:42 | -20.12133 | -44.48375 | 38001 ft | 483 kts | 216° |
| 2026-05-05 21:42 | -20.17587 | -44.52617 | 38002 ft | 483 kts | 216° |
| 2026-05-05 21:43 | -20.22940 | -44.56783 | 38000 ft | 483 kts | 216° |
| 2026-05-05 21:43 | -20.28348 | -44.60994 | 38000 ft | 483 kts | 216° |
| 2026-05-05 21:44 | -20.33674 | -44.65144 | 38002 ft | 483 kts | 216° |
| 2026-05-05 21:44 | -20.36398 | -44.67268 | 38003 ft | 467 kts | 216° |
| 2026-05-05 21:44 | -20.38982 | -44.69283 | 37999 ft | 450 kts | 216° |
| 2026-05-05 21:45 | -20.43985 | -44.73189 | 38000 ft | 447 kts | 216° |
| 2026-05-05 21:45 | -20.48939 | -44.77059 | 37999 ft | 454 kts | 216° |
| 2026-05-05 21:46 | -20.54041 | -44.81043 | 38001 ft | 453 kts | 216° |
| 2026-05-05 21:46 | -20.59158 | -44.85039 | 38000 ft | 453 kts | 216° |
| 2026-05-05 21:47 | -20.64180 | -44.88965 | 37998 ft | 453 kts | 216° |
| 2026-05-05 21:47 | -20.69190 | -44.92885 | 38010 ft | 455 kts | 216° |
| 2026-05-05 21:48 | -20.73448 | -44.96220 | 38008 ft | 456 kts | 216° |
| 2026-05-05 21:48 | -20.79278 | -45.00796 | 38001 ft | 453 kts | 217° |
| 2026-05-05 21:49 | -20.84389 | -45.04821 | 38003 ft | 453 kts | 217° |
| 2026-05-05 21:49 | -20.89435 | -45.08795 | 38000 ft | 452 kts | 217° |
| 2026-05-05 21:50 | -20.94546 | -45.12821 | 37998 ft | 453 kts | 217° |
| 2026-05-05 21:50 | -20.99599 | -45.16800 | 37982 ft | 453 kts | 217° |
| 2026-05-05 21:51 | -21.02128 | -45.18794 | 37770 ft | 453 kts | 217° |
| 2026-05-05 21:51 | -21.04684 | -45.20810 | 37521 ft | 451 kts | 217° |
| 2026-05-05 21:51 | -21.06359 | -45.22131 | 37372 ft | 451 kts | 217° |
| 2026-05-05 21:51 | -21.08909 | -45.24143 | 37115 ft | 451 kts | 217° |
| 2026-05-05 21:52 | -21.14782 | -45.28782 | 36527 ft | 451 kts | 217° |
| 2026-05-05 21:52 | -21.16457 | -45.30106 | 36363 ft | 452 kts | 217° |
| 2026-05-05 21:52 | -21.18804 | -45.31962 | 36127 ft | 452 kts | 217° |
| 2026-05-05 21:53 | -21.21213 | -45.33867 | 35895 ft | 452 kts | 217° |
| 2026-05-05 21:53 | -21.23761 | -45.35883 | 35646 ft | 452 kts | 217° |
| 2026-05-05 21:53 | -21.26214 | -45.37825 | 35402 ft | 453 kts | 217° |
| 2026-05-05 21:53 | -21.28773 | -45.39852 | 35152 ft | 454 kts | 217° |
| 2026-05-05 21:54 | -21.31292 | -45.41848 | 34904 ft | 454 kts | 217° |
| 2026-05-05 21:54 | -21.33726 | -45.43777 | 34667 ft | 455 kts | 217° |
| 2026-05-05 21:54 | -21.36338 | -45.45848 | 34413 ft | 455 kts | 217° |
| 2026-05-05 21:54 | -21.38887 | -45.47871 | 34161 ft | 456 kts | 217° |
| 2026-05-05 21:55 | -21.41444 | -45.49900 | 33911 ft | 457 kts | 217° |
| 2026-05-05 21:55 | -21.44053 | -45.51972 | 33651 ft | 456 kts | 217° |
| 2026-05-05 21:55 | -21.46597 | -45.53993 | 33406 ft | 456 kts | 217° |
| 2026-05-05 21:55 | -21.49146 | -45.56019 | 33177 ft | 457 kts | 217° |
| 2026-05-05 21:56 | -21.51676 | -45.58025 | 32917 ft | 457 kts | 216° |
| 2026-05-05 21:56 | -21.54263 | -45.60056 | 32661 ft | 459 kts | 216° |
| 2026-05-05 21:56 | -21.56833 | -45.62068 | 32418 ft | 459 kts | 216° |
| 2026-05-05 21:56 | -21.59382 | -45.64066 | 32167 ft | 459 kts | 216° |
| 2026-05-05 21:57 | -21.61969 | -45.66096 | 31912 ft | 459 kts | 216° |
| 2026-05-05 21:57 | -21.64597 | -45.68160 | 31659 ft | 460 kts | 216° |
| 2026-05-05 21:57 | -21.67172 | -45.70185 | 31413 ft | 460 kts | 216° |
| 2026-05-05 21:57 | -21.69660 | -45.72143 | 31175 ft | 461 kts | 216° |
| 2026-05-05 21:58 | -21.72194 | -45.74138 | 30923 ft | 461 kts | 216° |
| 2026-05-05 21:58 | -21.74829 | -45.76213 | 30678 ft | 462 kts | 216° |
| 2026-05-05 21:58 | -21.77379 | -45.78223 | 30428 ft | 460 kts | 216° |
| 2026-05-05 21:58 | -21.79981 | -45.80274 | 30177 ft | 458 kts | 216° |
| 2026-05-05 21:59 | -21.82465 | -45.82233 | 29935 ft | 456 kts | 216° |
| 2026-05-05 21:59 | -21.85021 | -45.84251 | 29686 ft | 454 kts | 216° |
| 2026-05-05 21:59 | -21.87560 | -45.86255 | 29436 ft | 453 kts | 216° |
| 2026-05-05 21:59 | -21.90088 | -45.88251 | 29181 ft | 451 kts | 216° |
| 2026-05-05 22:00 | -21.92631 | -45.90259 | 28933 ft | 449 kts | 216° |
| 2026-05-05 22:00 | -21.95143 | -45.92244 | 28683 ft | 447 kts | 216° |
| 2026-05-05 22:00 | -21.97688 | -45.94256 | 28432 ft | 446 kts | 216° |
| 2026-05-05 22:00 | -22.00185 | -45.96232 | 28180 ft | 445 kts | 216° |
| 2026-05-05 22:01 | -22.02641 | -45.98176 | 27943 ft | 445 kts | 216° |
| 2026-05-05 22:01 | -22.05190 | -46.00194 | 27678 ft | 443 kts | 216° |
| 2026-05-05 22:01 | -22.07523 | -46.02042 | 27437 ft | 442 kts | 216° |
| 2026-05-05 22:01 | -22.10058 | -46.04051 | 27185 ft | 439 kts | 216° |
| 2026-05-05 22:02 | -22.12540 | -46.06020 | 26932 ft | 437 kts | 216° |
| 2026-05-05 22:02 | -22.14937 | -46.07922 | 26678 ft | 433 kts | 217° |
| 2026-05-05 22:02 | -22.17335 | -46.09824 | 26203 ft | 432 kts | 217° |
| 2026-05-05 22:02 | -22.19813 | -46.11792 | 25589 ft | 431 kts | 217° |
| 2026-05-05 22:03 | -22.22221 | -46.13705 | 24985 ft | 427 kts | 217° |
| 2026-05-05 22:03 | -22.24608 | -46.15602 | 24399 ft | 423 kts | 217° |
| 2026-05-05 22:03 | -22.26938 | -46.17455 | 23822 ft | 419 kts | 217° |
| 2026-05-05 22:03 | -22.29318 | -46.19323 | 23221 ft | 415 kts | 213° |
| 2026-05-05 22:04 | -22.31758 | -46.20747 | 22683 ft | 411 kts | 203° |
| 2026-05-05 22:04 | -22.34466 | -46.21694 | 22099 ft | 407 kts | 193° |
| 2026-05-05 22:04 | -22.37263 | -46.22171 | 21473 ft | 404 kts | 188° |
| 2026-05-05 22:04 | -22.40036 | -46.22580 | 20963 ft | 399 kts | 188° |
| 2026-05-05 22:05 | -22.42769 | -46.23004 | 20397 ft | 395 kts | 188° |
| 2026-05-05 22:05 | -22.45471 | -46.23427 | 19846 ft | 391 kts | 188° |
| 2026-05-05 22:05 | -22.48168 | -46.23849 | 19097 ft | 392 kts | 188° |
| 2026-05-05 22:05 | -22.50899 | -46.24275 | 18060 ft | 401 kts | 188° |
| 2026-05-05 22:06 | -22.53676 | -46.24707 | 17083 ft | 407 kts | 188° |
| 2026-05-05 22:06 | -22.56477 | -46.25143 | 16152 ft | 408 kts | 188° |
| 2026-05-05 22:06 | -22.59289 | -46.25581 | 14967 ft | 416 kts | 188° |
| 2026-05-05 22:06 | -22.62160 | -46.26028 | 13975 ft | 419 kts | 188° |
| 2026-05-05 22:07 | -22.64996 | -46.26469 | 13186 ft | 414 kts | 188° |
| 2026-05-05 22:07 | -22.67864 | -46.26914 | 12382 ft | 409 kts | 188° |
| 2026-05-05 22:07 | -22.70645 | -46.27347 | 11615 ft | 405 kts | 188° |
| 2026-05-05 22:07 | -22.73422 | -46.27779 | 10888 ft | 400 kts | 188° |
| 2026-05-05 22:08 | -22.76078 | -46.28219 | 10170 ft | 394 kts | 192° |
| 2026-05-05 22:08 | -22.78717 | -46.29042 | 9430 ft | 389 kts | 201° |
| 2026-05-05 22:08 | -22.81086 | -46.30241 | 8705 ft | 385 kts | 210° |
| 2026-05-05 22:08 | -22.83318 | -46.31666 | 7988 ft | 382 kts | 211° |
| 2026-05-05 22:09 | -22.85618 | -46.33105 | 7341 ft | 376 kts | 210° |
| 2026-05-05 22:09 | -22.87876 | -46.34500 | 7082 ft | 359 kts | 210° |
| 2026-05-05 22:09 | -22.89997 | -46.35810 | 6999 ft | 340 kts | 210° |
| 2026-05-05 22:09 | -22.91959 | -46.37022 | 7001 ft | 320 kts | 210° |
| 2026-05-05 22:10 | -22.93840 | -46.38184 | 6997 ft | 302 kts | 210° |
| 2026-05-05 22:10 | -22.95597 | -46.39273 | 6995 ft | 284 kts | 210° |
| 2026-05-05 22:10 | -22.97273 | -46.40313 | 7000 ft | 279 kts | 210° |
| 2026-05-05 22:10 | -22.98957 | -46.41358 | 7001 ft | 279 kts | 210° |
| 2026-05-05 22:11 | -23.00650 | -46.42410 | 6997 ft | 278 kts | 210° |
| 2026-05-05 22:11 | -23.02327 | -46.43450 | 6994 ft | 279 kts | 210° |
| 2026-05-05 22:11 | -23.04027 | -46.44505 | 7013 ft | 279 kts | 210° |
| 2026-05-05 22:11 | -23.05706 | -46.45548 | 6997 ft | 278 kts | 210° |
| 2026-05-05 22:12 | -23.07380 | -46.46589 | 6986 ft | 278 kts | 210° |
| 2026-05-05 22:12 | -23.09066 | -46.47637 | 6998 ft | 278 kts | 210° |
| 2026-05-05 22:12 | -23.10752 | -46.48686 | 6895 ft | 279 kts | 210° |
| 2026-05-05 22:12 | -23.12413 | -46.49720 | 6763 ft | 277 kts | 210° |
| 2026-05-05 22:13 | -23.14062 | -46.50748 | 6632 ft | 277 kts | 210° |
| 2026-05-05 22:13 | -23.15745 | -46.51796 | 6500 ft | 277 kts | 210° |
| 2026-05-05 22:13 | -23.17365 | -46.52806 | 6366 ft | 278 kts | 210° |
| 2026-05-05 22:13 | -23.19065 | -46.53863 | 6243 ft | 275 kts | 210° |
| 2026-05-05 22:14 | -23.20711 | -46.54888 | 6100 ft | 274 kts | 211° |
| 2026-05-05 22:14 | -23.22271 | -46.55983 | 5972 ft | 274 kts | 214° |
| 2026-05-05 22:14 | -23.23851 | -46.57117 | 5826 ft | 274 kts | 213° |
| 2026-05-05 22:14 | -23.25488 | -46.58274 | 5670 ft | 273 kts | 212° |
| 2026-05-05 22:15 | -23.27142 | -46.59203 | 5543 ft | 268 kts | 201° |
| 2026-05-05 22:15 | -23.28806 | -46.59772 | 5495 ft | 238 kts | 197° |
| 2026-05-05 22:15 | -23.30361 | -46.60299 | 5501 ft | 233 kts | 198° |
| 2026-05-05 22:15 | -23.31927 | -46.60854 | 5496 ft | 232 kts | 198° |
| 2026-05-05 22:16 | -23.33447 | -46.61395 | 5497 ft | 231 kts | 198° |
| 2026-05-05 22:16 | -23.34958 | -46.61932 | 5500 ft | 231 kts | 198° |
| 2026-05-05 22:16 | -23.35980 | -46.62293 | 5498 ft | 231 kts | 198° |
| 2026-05-05 22:16 | -23.37516 | -46.62836 | 5500 ft | 231 kts | 198° |
| 2026-05-05 22:17 | -23.39051 | -46.63376 | 5502 ft | 231 kts | 198° |
| 2026-05-05 22:17 | -23.41081 | -46.64089 | 5498 ft | 232 kts | 197° |
| 2026-05-05 22:17 | -23.42628 | -46.64316 | 5390 ft | 229 kts | 175° |
| 2026-05-05 22:17 | -23.43714 | -46.64080 | 5117 ft | 228 kts | 160° |
| 2026-05-05 22:18 | -23.45055 | -46.63237 | 4676 ft | 227 kts | 137° |
| 2026-05-05 22:18 | -23.46060 | -46.61869 | 4547 ft | 231 kts | 117° |
| 2026-05-05 22:18 | -23.46518 | -46.60249 | 4419 ft | 230 kts | 93° |
| 2026-05-05 22:18 | -23.46408 | -46.58522 | 4267 ft | 230 kts | 79° |
| 2026-05-05 22:19 | -23.46041 | -46.56832 | 3975 ft | 229 kts | 74° |
| 2026-05-05 22:19 | -23.45602 | -46.55151 | 3670 ft | 227 kts | 73° |
| 2026-05-05 22:19 | -23.45175 | -46.53544 | 3374 ft | 221 kts | 73° |
| 2026-05-05 22:19 | -23.44773 | -46.52046 | 3088 ft | 198 kts | 73° |
| 2026-05-05 22:20 | -23.44432 | -46.50779 | 2852 ft | 183 kts | 73° |
| 2026-05-05 22:20 | -23.44115 | -46.49595 | 2646 ft | 171 kts | 73° |
| 2026-05-05 22:20 | -23.43793 | -46.48403 | 2487 ft | 155 kts | 73° |
| 2026-05-05 22:20 | -23.43529 | -46.47417 | 2462 ft | 109 kts | 73° |
| 2026-05-05 22:21 | -23.43363 | -46.46831 | 2464 ft | 92 kts | 71° |
| 2026-05-05 22:21 | -23.43198 | -46.46270 | 2466 ft | 45 kts | 52° |
| 2026-05-05 22:21 | -23.43146 | -46.46238 | 2456 ft | 0 kts | 12° |